createdAt,value
2017-10-17T00:00:10.069Z,19.00
2017-10-17T00:02:37.685Z,19.63
2017-10-17T00:05:05.141Z,19.40
2017-10-17T00:07:32.606Z,19.53
2017-10-17T00:10:00.812Z,21.50
2017-10-17T00:12:28.285Z,18.80
2017-10-17T00:14:55.759Z,20.17
2017-10-17T00:17:23.209Z,23.93
2017-10-17T00:19:50.653Z,22.27
2017-10-17T00:22:18.168Z,19.87
2017-10-17T00:27:42.736Z,22.60
2017-10-17T00:30:10.176Z,18.60
2017-10-17T00:32:40.369Z,20.27
2017-10-17T00:35:25.523Z,20.33
2017-10-17T00:37:53.797Z,26.40
2017-10-17T00:40:22.022Z,20.50
2017-10-17T00:42:50.225Z,19.90
2017-10-17T00:45:17.684Z,20.30
2017-10-17T00:47:45.341Z,21.60
2017-10-17T00:50:12.829Z,19.63
2017-10-17T00:52:41.099Z,22.00
2017-10-17T00:55:08.564Z,19.20
2017-10-17T00:57:36.021Z,19.30
2017-10-17T01:00:03.488Z,20.93
2017-10-17T01:02:30.925Z,20.23
2017-10-17T01:04:59.148Z,19.87
2017-10-17T01:07:26.595Z,20.60
2017-10-17T01:09:54.048Z,20.13
2017-10-17T01:12:21.498Z,20.80
2017-10-17T01:14:48.988Z,20.37
2017-10-17T01:17:16.432Z,20.83
2017-10-17T01:19:43.872Z,19.40
2017-10-17T01:22:11.353Z,20.83
2017-10-17T01:24:38.799Z,25.03
2017-10-17T01:27:06.291Z,22.10
2017-10-17T01:29:35.072Z,24.47
2017-10-17T01:32:02.580Z,23.20
2017-10-17T01:34:41.656Z,29.53
2017-10-17T01:37:09.119Z,29.13
2017-10-17T01:39:42.846Z,22.13
2017-10-17T01:42:12.720Z,21.37
2017-10-17T01:44:43.972Z,21.67
2017-10-17T01:47:13.382Z,22.13
2017-10-17T01:49:44.267Z,21.13
2017-10-17T01:52:14.185Z,23.87
2017-10-17T01:54:58.341Z,22.03
2017-10-17T01:57:25.827Z,24.80
2017-10-17T02:00:08.840Z,22.43
2017-10-17T02:02:39.752Z,21.60
2017-10-17T02:05:07.203Z,21.67
2017-10-17T02:07:34.772Z,21.23
2017-10-17T02:13:00.913Z,20.80
2017-10-17T02:15:28.432Z,20.27
2017-10-17T02:18:02.509Z,22.40
2017-10-17T02:20:30.122Z,26.20
2017-10-17T02:22:57.571Z,24.55
2017-10-17T02:25:35.872Z,22.83
2017-10-17T02:31:00.136Z,23.03
2017-10-17T02:33:28.516Z,20.07
2017-10-17T02:35:55.972Z,22.47
2017-10-17T02:38:23.433Z,21.20
2017-10-17T02:40:52.839Z,20.30
2017-10-17T02:43:24.897Z,22.00
2017-10-17T02:45:52.343Z,21.07
2017-10-17T02:51:20.299Z,20.67
2017-10-17T02:53:47.771Z,20.57
2017-10-17T02:56:15.272Z,21.53
2017-10-17T02:58:43.499Z,20.40
2017-10-17T03:01:26.693Z,22.62
2017-10-17T03:03:54.164Z,20.58
2017-10-17T03:06:21.637Z,21.13
2017-10-17T03:08:49.105Z,20.92
2017-10-17T03:11:17.119Z,21.27
2017-10-17T03:16:42.051Z,20.05
2017-10-17T03:19:09.568Z,19.80
2017-10-17T03:21:48.373Z,24.60
2017-10-17T03:24:18.212Z,20.12
2017-10-17T03:26:46.441Z,20.73
2017-10-17T03:29:13.887Z,18.62
2017-10-17T03:31:41.367Z,20.23
2017-10-17T03:34:11.295Z,20.80
2017-10-17T03:36:59.293Z,25.00
2017-10-17T03:39:26.767Z,19.80
2017-10-17T03:41:54.222Z,18.60
2017-10-17T03:44:42.416Z,20.90
2017-10-17T03:47:12.357Z,20.10
2017-10-17T03:49:43.480Z,17.47
2017-10-17T03:52:15.421Z,17.67
2017-10-17T03:54:45.935Z,18.10
2017-10-17T03:57:14.812Z,18.02
2017-10-17T03:59:46.552Z,19.37
2017-10-17T04:02:14.018Z,19.50
2017-10-17T04:04:57.805Z,19.15
2017-10-17T04:10:24.408Z,18.02
2017-10-17T04:13:14.748Z,19.62
2017-10-17T04:15:42.328Z,17.55
2017-10-17T04:18:13.699Z,18.05
2017-10-17T04:20:41.173Z,20.85
2017-10-17T04:23:23.535Z,17.60
2017-10-17T04:25:53.844Z,17.40
2017-10-17T04:28:27.776Z,18.95
2017-10-17T04:37:31.328Z,17.92
2017-10-17T04:39:58.959Z,19.50
2017-10-17T04:46:00.487Z,16.77
2017-10-17T04:51:52.852Z,20.20
2017-10-17T04:54:31.078Z,16.83
2017-10-17T04:57:01.609Z,19.90
2017-10-17T04:59:40.479Z,17.60
2017-10-17T05:02:13.305Z,19.98
2017-10-17T05:04:44.676Z,18.67
2017-10-17T05:07:15.784Z,20.77
2017-10-17T05:13:00.316Z,19.67
2017-10-17T05:15:27.800Z,19.05
2017-10-17T05:18:12.410Z,17.98
2017-10-17T05:20:42.578Z,24.77
2017-10-17T05:26:24.854Z,21.15
2017-10-17T05:28:56.201Z,18.52
2017-10-17T05:31:24.615Z,18.27
2017-10-17T05:34:05.007Z,22.42
2017-10-17T05:36:47.080Z,20.13
2017-10-17T05:39:14.533Z,18.95
2017-10-17T05:41:42.045Z,18.40
2017-10-17T05:44:34.297Z,19.58
2017-10-17T05:47:01.768Z,19.05
2017-10-17T05:49:34.621Z,19.67
2017-10-17T05:52:02.092Z,20.77
2017-10-17T05:54:29.576Z,21.37
2017-10-17T05:56:57.028Z,23.02
2017-10-17T05:59:24.518Z,22.02
2017-10-17T06:01:51.963Z,21.10
2017-10-17T06:04:19.428Z,31.05
2017-10-17T06:06:46.897Z,21.52
2017-10-17T06:09:15.256Z,20.95
2017-10-17T06:11:42.841Z,23.08
2017-10-17T06:14:11.063Z,18.67
2017-10-17T06:16:38.544Z,20.48
2017-10-17T06:19:06.873Z,25.23
2017-10-17T06:21:34.341Z,24.50
2017-10-17T06:24:01.783Z,23.87
2017-10-17T06:26:29.277Z,21.83
2017-10-17T06:28:56.736Z,23.33
2017-10-17T06:31:24.205Z,24.60
2017-10-17T06:33:51.711Z,21.80
2017-10-17T06:36:19.197Z,24.70
2017-10-17T06:38:46.663Z,26.95
2017-10-17T06:41:14.125Z,22.30
2017-10-17T06:43:41.576Z,24.90
2017-10-17T06:46:09.061Z,22.62
2017-10-17T06:48:37.421Z,23.83
2017-10-17T06:51:04.892Z,27.20
2017-10-17T06:53:33.126Z,24.42
2017-10-17T06:56:00.603Z,28.33
2017-10-17T06:58:28.065Z,27.80
2017-10-17T07:00:55.535Z,25.12
2017-10-17T07:03:23.781Z,22.48
2017-10-17T07:05:51.236Z,24.15
2017-10-17T07:08:18.816Z,21.67
2017-10-17T07:10:46.276Z,26.60
2017-10-17T07:13:13.747Z,24.63
2017-10-17T07:15:41.974Z,23.50
2017-10-17T07:18:09.514Z,24.43
2017-10-17T07:20:36.955Z,30.90
2017-10-17T07:23:04.442Z,21.57
2017-10-17T07:25:31.904Z,26.93
2017-10-17T07:27:59.356Z,27.30
2017-10-17T07:30:26.916Z,25.87
2017-10-17T07:32:54.469Z,20.63
2017-10-17T07:35:21.920Z,25.37
2017-10-17T07:37:49.366Z,26.97
2017-10-17T07:40:16.836Z,22.63
2017-10-17T07:42:44.415Z,29.17
2017-10-17T07:45:11.885Z,28.43
2017-10-17T07:47:39.327Z,24.03
2017-10-17T07:50:06.796Z,28.30
2017-10-17T07:52:34.309Z,33.30
2017-10-17T07:55:01.778Z,25.27
2017-10-17T07:57:29.221Z,25.23
2017-10-17T07:59:56.667Z,30.10
2017-10-17T08:02:24.325Z,25.30
2017-10-17T08:04:51.857Z,23.27
2017-10-17T08:07:20.114Z,22.30
2017-10-17T08:09:47.559Z,24.77
2017-10-17T08:12:15.036Z,27.67
2017-10-17T08:14:42.472Z,26.00
2017-10-17T08:17:09.935Z,25.20
2017-10-17T08:19:37.477Z,25.47
2017-10-17T08:22:04.968Z,27.63
2017-10-17T08:24:33.325Z,24.40
2017-10-17T08:27:00.780Z,26.50
2017-10-17T08:29:28.249Z,25.00
2017-10-17T08:31:55.913Z,28.03
2017-10-17T08:34:23.371Z,23.73
2017-10-17T08:36:50.812Z,27.03
2017-10-17T08:39:18.348Z,23.53
2017-10-17T08:41:45.804Z,24.87
2017-10-17T08:44:13.272Z,22.97
2017-10-17T08:46:40.734Z,23.87
2017-10-17T08:49:08.208Z,22.27
2017-10-17T08:51:35.671Z,30.90
2017-10-17T08:54:03.125Z,23.97
2017-10-17T08:56:30.583Z,30.53
2017-10-17T08:58:58.069Z,26.03
2017-10-17T09:01:25.540Z,23.97
2017-10-17T09:03:53.053Z,24.87
2017-10-17T09:06:20.547Z,24.23
2017-10-17T09:08:47.994Z,21.10
2017-10-17T09:11:16.205Z,23.13
2017-10-17T09:13:43.641Z,18.80
2017-10-17T09:16:11.103Z,23.70
2017-10-17T09:18:38.566Z,19.43
2017-10-17T09:21:06.108Z,21.90
2017-10-17T09:23:33.553Z,21.40
2017-10-17T09:26:00.988Z,25.53
2017-10-17T09:28:29.225Z,23.90
2017-10-17T09:30:56.664Z,20.90
2017-10-17T09:33:24.109Z,21.63
2017-10-17T09:35:51.581Z,20.47
2017-10-17T09:38:19.025Z,20.60
2017-10-17T09:40:46.476Z,23.67
2017-10-17T09:43:13.912Z,21.43
2017-10-17T09:45:42.139Z,17.77
2017-10-17T09:48:10.345Z,18.37
2017-10-17T09:50:38.441Z,18.83
2017-10-17T09:53:06.641Z,19.27
2017-10-17T09:55:34.096Z,23.10
2017-10-17T09:58:01.554Z,19.53
2017-10-17T10:00:28.997Z,18.97
2017-10-17T10:02:56.488Z,18.37
2017-10-17T10:05:23.968Z,18.80
2017-10-17T10:07:51.432Z,18.27
2017-10-17T10:10:19.644Z,18.27
2017-10-17T10:12:47.125Z,18.90
2017-10-17T10:15:14.571Z,19.07
2017-10-17T10:17:42.098Z,20.10
2017-10-17T10:20:10.364Z,19.17
2017-10-17T10:22:38.673Z,16.57
2017-10-17T10:25:06.129Z,19.60
2017-10-17T10:27:33.654Z,19.17
2017-10-17T10:30:01.868Z,16.47
2017-10-17T10:32:29.441Z,20.87
2017-10-17T10:34:56.972Z,16.77
2017-10-17T10:37:24.429Z,15.70
2017-10-17T10:39:51.865Z,17.47
2017-10-17T10:42:20.014Z,15.97
2017-10-17T10:44:47.647Z,16.30
2017-10-17T10:47:15.781Z,16.70
2017-10-17T10:49:43.221Z,14.80
2017-10-17T10:52:11.695Z,16.90
2017-10-17T10:54:39.904Z,16.70
2017-10-17T10:57:07.373Z,16.60
2017-10-17T10:59:34.805Z,13.43
2017-10-17T11:02:03.026Z,16.60
2017-10-17T11:04:30.467Z,13.40
2017-10-17T11:06:57.959Z,13.80
2017-10-17T11:09:26.165Z,16.20
2017-10-17T11:11:53.613Z,14.77
2017-10-17T11:14:21.133Z,16.20
2017-10-17T11:16:48.580Z,15.57
2017-10-17T11:19:16.060Z,16.10
2017-10-17T11:21:44.286Z,13.43
2017-10-17T11:24:12.449Z,13.47
2017-10-17T11:26:39.898Z,16.30
2017-10-17T11:29:07.364Z,12.40
2017-10-17T11:31:34.917Z,12.40
2017-10-17T11:34:02.365Z,13.73
2017-10-17T11:36:29.811Z,12.60
2017-10-17T11:38:57.276Z,12.90
2017-10-17T11:41:36.505Z,12.40
2017-10-17T11:44:11.881Z,13.00
2017-10-17T11:46:39.341Z,12.60
2017-10-17T11:49:06.812Z,11.40
2017-10-17T11:51:34.266Z,12.17
2017-10-17T11:54:01.724Z,12.07
2017-10-17T11:56:29.186Z,11.90
2017-10-17T11:58:56.720Z,14.17
2017-10-17T12:01:24.167Z,10.73
2017-10-17T12:03:51.780Z,13.93
2017-10-17T12:06:20.048Z,11.47
2017-10-17T12:08:48.267Z,11.20
2017-10-17T12:11:15.726Z,11.17
2017-10-17T12:13:43.172Z,12.33
2017-10-17T12:16:10.634Z,10.80
2017-10-17T12:18:38.074Z,11.03
2017-10-17T12:21:05.529Z,12.00
2017-10-17T12:23:32.997Z,15.80
2017-10-17T12:26:00.468Z,11.93
2017-10-17T12:28:27.922Z,11.33
2017-10-17T12:30:55.403Z,12.23
2017-10-17T12:33:22.912Z,13.07
2017-10-17T12:35:50.353Z,10.80
2017-10-17T12:38:19.137Z,11.10
2017-10-17T12:40:47.371Z,9.97
2017-10-17T12:43:14.907Z,11.00
2017-10-17T12:45:42.400Z,11.47
2017-10-17T12:48:09.829Z,11.43
2017-10-17T12:50:37.292Z,11.70
2017-10-17T12:53:04.762Z,11.47
2017-10-17T12:55:32.300Z,10.17
2017-10-17T12:57:59.835Z,13.30
2017-10-17T13:00:27.285Z,11.10
2017-10-17T13:02:54.748Z,10.77
2017-10-17T13:05:22.336Z,11.00
2017-10-17T13:07:49.805Z,11.70
2017-10-17T13:10:17.232Z,12.40
2017-10-17T13:12:44.672Z,11.23
2017-10-17T13:15:12.943Z,10.57
2017-10-17T13:17:40.392Z,11.03
2017-10-17T13:20:07.997Z,13.43
2017-10-17T13:22:35.439Z,12.37
2017-10-17T13:25:02.908Z,11.70
2017-10-17T13:27:31.109Z,10.70
2017-10-17T13:29:58.619Z,13.80
2017-10-17T13:32:26.069Z,13.87
2017-10-17T13:34:53.576Z,11.10
2017-10-17T13:37:21.048Z,12.73
2017-10-17T13:39:49.300Z,11.90
2017-10-17T13:42:16.757Z,16.30
2017-10-17T13:44:44.268Z,11.57
2017-10-17T13:47:11.730Z,18.77
2017-10-17T13:49:39.171Z,13.23
2017-10-17T13:52:06.772Z,14.00
2017-10-17T13:54:34.223Z,12.80
2017-10-17T13:57:01.689Z,11.43
2017-10-17T13:59:29.125Z,12.60
2017-10-17T14:01:56.583Z,10.73
2017-10-17T14:04:24.032Z,12.47
2017-10-17T14:06:51.478Z,10.17
2017-10-17T14:09:18.951Z,15.87
2017-10-17T14:11:46.468Z,11.37
2017-10-17T14:14:14.714Z,11.90
2017-10-17T14:16:42.150Z,14.17
2017-10-17T14:19:09.601Z,10.97
2017-10-17T14:21:37.045Z,13.20
2017-10-17T14:24:04.497Z,13.77
2017-10-17T14:26:31.989Z,12.60
2017-10-17T14:28:59.485Z,14.30
2017-10-17T14:31:26.931Z,11.43
2017-10-17T14:33:55.142Z,11.50
2017-10-17T14:36:22.604Z,11.00
2017-10-17T14:38:50.048Z,13.30
2017-10-17T14:41:17.511Z,11.93
2017-10-17T14:43:44.964Z,13.30
2017-10-17T14:46:12.420Z,11.03
2017-10-17T14:48:39.855Z,10.73
2017-10-17T14:51:07.321Z,11.27
2017-10-17T14:53:34.821Z,11.73
2017-10-17T14:56:02.284Z,14.67
2017-10-17T14:58:29.720Z,12.27
2017-10-17T15:00:57.190Z,12.43
2017-10-17T15:03:24.640Z,11.60
2017-10-17T15:05:52.086Z,11.27
2017-10-17T15:08:19.556Z,18.20
2017-10-17T15:10:46.995Z,11.83
2017-10-17T15:13:15.225Z,15.40
2017-10-17T15:15:43.434Z,13.27
2017-10-17T15:18:10.885Z,12.20
2017-10-17T15:20:38.549Z,10.93
2017-10-17T15:23:06.215Z,16.63
2017-10-17T15:25:33.649Z,19.13
2017-10-17T15:28:01.881Z,18.87
2017-10-17T15:30:29.327Z,10.60
2017-10-17T15:32:56.787Z,11.27
2017-10-17T15:35:24.238Z,11.43
2017-10-17T15:37:51.696Z,13.93
2017-10-17T15:40:19.165Z,14.67
2017-10-17T15:42:46.599Z,11.23
2017-10-17T15:45:14.632Z,14.17
2017-10-17T15:47:42.850Z,14.77
2017-10-17T15:50:10.300Z,11.20
2017-10-17T15:52:37.753Z,10.37
2017-10-17T15:55:05.197Z,12.50
2017-10-17T15:57:32.768Z,11.37
2017-10-17T16:00:00.500Z,11.47
2017-10-17T16:02:27.988Z,12.87
2017-10-17T16:04:55.432Z,18.23
2017-10-17T16:07:22.919Z,11.37
2017-10-17T16:09:50.371Z,11.77
2017-10-17T16:12:17.823Z,10.63
2017-10-17T16:14:45.283Z,11.80
2017-10-17T16:17:12.763Z,10.50
2017-10-17T16:19:41.010Z,11.03
2017-10-17T16:22:09.241Z,11.63
2017-10-17T16:24:36.704Z,9.73
2017-10-17T16:27:04.145Z,13.27
2017-10-17T16:29:31.599Z,13.63
2017-10-17T16:31:59.048Z,12.57
2017-10-17T16:34:27.313Z,14.33
2017-10-17T16:36:55.522Z,12.53
2017-10-17T16:39:23.000Z,13.40
2017-10-17T16:41:51.224Z,13.00
2017-10-17T16:44:18.680Z,12.80
2017-10-17T16:46:46.985Z,12.60
2017-10-17T16:49:14.437Z,13.17
2017-10-17T16:51:41.890Z,16.07
2017-10-17T16:54:09.344Z,17.00
2017-10-17T16:56:36.824Z,12.83
2017-10-17T16:59:04.310Z,13.37
2017-10-17T17:01:31.763Z,12.63
2017-10-17T17:03:59.247Z,24.10
2017-10-17T17:06:27.482Z,13.30
2017-10-17T17:08:54.953Z,12.33
2017-10-17T17:11:22.408Z,13.97
2017-10-17T17:13:49.878Z,15.90
2017-10-17T17:16:17.357Z,13.40
2017-10-17T17:18:44.798Z,18.00
2017-10-17T17:21:13.034Z,15.37
2017-10-17T17:23:40.535Z,13.63
2017-10-17T17:26:08.807Z,18.47
2017-10-17T17:28:37.083Z,17.50
2017-10-17T17:31:05.309Z,13.53
2017-10-17T17:33:33.597Z,13.47
2017-10-17T17:36:01.040Z,15.53
2017-10-17T17:38:28.549Z,15.40
2017-10-17T17:40:56.781Z,15.73
2017-10-17T17:43:24.258Z,17.00
2017-10-17T17:45:51.924Z,15.77
2017-10-17T17:48:19.380Z,15.57
2017-10-17T17:50:46.849Z,17.87
2017-10-17T17:53:15.509Z,17.13
2017-10-17T17:55:42.981Z,15.20
2017-10-17T17:58:10.505Z,17.13
2017-10-17T18:00:37.976Z,15.83
2017-10-17T18:03:05.448Z,13.97
2017-10-17T18:05:32.921Z,17.47
2017-10-17T18:08:01.194Z,15.47
2017-10-17T18:10:29.236Z,18.10
2017-10-17T18:12:56.713Z,16.93
2017-10-17T18:15:24.196Z,17.50
2017-10-17T18:17:51.689Z,18.87
2017-10-17T18:20:19.150Z,17.17
2017-10-17T18:22:46.621Z,19.73
2017-10-17T18:25:14.085Z,18.70
2017-10-17T18:27:41.528Z,19.43
2017-10-17T18:30:09.001Z,18.23
2017-10-17T18:32:36.476Z,19.57
2017-10-17T18:35:04.697Z,19.37
2017-10-17T18:37:32.141Z,15.63
2017-10-17T18:40:00.352Z,20.40
2017-10-17T18:42:27.817Z,18.47
2017-10-17T18:44:55.325Z,19.37
2017-10-17T18:47:22.793Z,20.67
2017-10-17T18:49:50.260Z,21.20
2017-10-17T18:52:17.705Z,18.97
2017-10-17T18:54:45.164Z,18.77
2017-10-17T18:57:12.634Z,21.10
2017-10-17T18:59:40.139Z,29.60
2017-10-17T19:02:08.801Z,20.10
2017-10-17T19:04:36.257Z,22.20
2017-10-17T19:07:03.877Z,20.90
2017-10-17T19:09:31.355Z,22.17
2017-10-17T19:11:59.602Z,26.30
2017-10-17T19:14:27.044Z,24.37
2017-10-17T19:16:54.511Z,19.67
2017-10-17T19:19:21.988Z,19.07
2017-10-17T19:21:49.469Z,22.43
2017-10-17T19:24:16.936Z,20.67
2017-10-17T19:26:44.416Z,19.87
2017-10-17T19:29:12.656Z,23.70
2017-10-17T19:31:40.425Z,20.53
2017-10-17T19:34:07.889Z,21.83
2017-10-17T19:36:35.487Z,23.60
2017-10-17T19:39:02.993Z,23.67
2017-10-17T19:41:30.458Z,23.40
2017-10-17T19:43:58.116Z,27.10
2017-10-17T19:46:25.584Z,29.20
2017-10-17T19:48:53.067Z,33.00
2017-10-17T19:51:20.571Z,29.90
2017-10-17T19:53:48.089Z,28.30
2017-10-17T19:56:15.535Z,27.00
2017-10-17T19:58:43.768Z,26.47
2017-10-17T20:01:11.299Z,30.57
2017-10-17T20:03:38.869Z,26.93
2017-10-17T20:06:06.401Z,26.30
2017-10-17T20:08:33.852Z,30.03
2017-10-17T20:11:01.376Z,29.10
2017-10-17T20:13:29.656Z,25.30
2017-10-17T20:15:57.933Z,26.27
2017-10-17T20:18:26.150Z,22.97
2017-10-17T20:20:53.642Z,26.07
2017-10-17T20:23:21.254Z,25.37
2017-10-17T20:25:49.236Z,25.23
2017-10-17T20:28:16.700Z,26.60
2017-10-17T20:30:44.176Z,30.00
2017-10-17T20:33:11.674Z,24.73
2017-10-17T20:35:39.142Z,26.10
2017-10-17T20:38:06.616Z,31.20
2017-10-17T20:40:34.073Z,27.83
2017-10-17T20:43:01.564Z,27.30
2017-10-17T20:45:29.008Z,27.37
2017-10-17T20:47:56.545Z,26.27
2017-10-17T20:50:24.006Z,24.53
2017-10-17T20:52:51.488Z,27.33
2017-10-17T20:55:18.959Z,28.87
2017-10-17T20:57:46.445Z,27.83
2017-10-17T21:00:14.840Z,23.87
2017-10-17T21:02:42.290Z,29.77
2017-10-17T21:05:09.769Z,26.17
2017-10-17T21:07:37.331Z,23.37
2017-10-17T21:10:04.877Z,27.53
2017-10-17T21:12:32.344Z,23.97
2017-10-17T21:14:59.872Z,22.40
2017-10-17T21:17:28.009Z,20.17
2017-10-17T21:19:55.713Z,22.53
2017-10-17T21:22:24.685Z,26.23
2017-10-17T21:24:52.927Z,22.47
2017-10-17T21:27:21.094Z,25.43
2017-10-17T21:29:48.634Z,26.97
2017-10-17T21:32:16.109Z,21.60
2017-10-17T21:34:43.564Z,27.50
2017-10-17T21:37:11.017Z,22.63
2017-10-17T21:39:38.472Z,22.67
2017-10-17T21:42:05.936Z,26.67
2017-10-17T21:44:33.609Z,24.60
2017-10-17T21:47:01.083Z,23.27
2017-10-17T21:49:29.995Z,27.10
2017-10-17T21:51:57.517Z,24.13
2017-10-17T21:54:24.984Z,23.00
2017-10-17T21:56:54.122Z,24.30
2017-10-17T21:59:21.570Z,23.07
2017-10-17T22:01:49.737Z,23.60
2017-10-17T22:04:17.197Z,21.33
2017-10-17T22:06:44.655Z,24.10
2017-10-17T22:09:12.147Z,21.30
2017-10-17T22:11:39.633Z,22.23
2017-10-17T22:14:07.849Z,22.60
2017-10-17T22:16:35.603Z,22.77
2017-10-17T22:19:03.109Z,21.53
2017-10-17T22:21:30.708Z,25.07
2017-10-17T22:23:58.304Z,25.83
2017-10-17T22:26:25.750Z,20.27
2017-10-17T22:28:53.218Z,19.03
2017-10-17T22:31:20.672Z,22.37
2017-10-17T22:33:48.116Z,20.43
2017-10-17T22:36:15.729Z,18.80
2017-10-17T22:38:44.116Z,22.43
2017-10-17T22:41:12.369Z,22.20
2017-10-17T22:43:39.840Z,23.47
2017-10-17T22:46:08.065Z,20.83
2017-10-17T22:48:35.536Z,20.30
2017-10-17T22:51:03.746Z,23.40
2017-10-17T22:53:32.000Z,22.33
2017-10-17T22:55:59.452Z,20.10
2017-10-17T22:58:26.951Z,21.50
2017-10-17T23:00:54.520Z,21.93
2017-10-17T23:03:22.780Z,20.97
2017-10-17T23:05:51.010Z,20.47
2017-10-17T23:08:18.473Z,21.53
2017-10-17T23:10:45.900Z,22.10
2017-10-17T23:13:13.365Z,18.17
2017-10-17T23:15:40.824Z,19.17
2017-10-17T23:18:20.253Z,21.47
2017-10-17T23:20:48.529Z,19.67
2017-10-17T23:23:15.977Z,25.17
2017-10-17T23:25:46.142Z,19.67
2017-10-17T23:28:13.583Z,19.90
2017-10-17T23:30:41.035Z,19.60
2017-10-17T23:33:08.582Z,18.83
2017-10-17T23:35:36.348Z,24.23
2017-10-17T23:38:03.865Z,20.60
2017-10-17T23:40:31.451Z,22.00
2017-10-17T23:42:58.905Z,23.13
2017-10-17T23:45:26.358Z,20.60
2017-10-17T23:47:53.813Z,18.90
2017-10-17T23:50:21.354Z,21.47
2017-10-17T23:52:48.841Z,21.50
2017-10-17T23:55:16.347Z,22.90
2017-10-17T23:57:44.664Z,20.20
